Time;durP1;ratioP1;P1;durP2;ratioP2;P2;SDS_P1;SDS_P2;PMS_P1;PMS_P2;Temp;Humidity;BMP_temperature;BMP_pressure;BME280_temperature;BME280_humidity;BME280_pressure;Samples;Min_cycle;Max_cycle;Signal;HPM_P1;HPM_P2
2022/04/15 00:01:38;;;;;;;9.65;4.70;;;;;;;14.18;100.00;100629.50;5074707;28;20021;-61
2022/04/15 00:04:04;;;;;;;10.68;4.57;;;;;;;14.16;100.00;100639.38;5068486;28;20079;-61
2022/04/15 00:06:30;;;;;;;11.60;4.38;;;;;;;14.05;100.00;100617.50;5054383;28;20033;-61
2022/04/15 00:08:55;;;;;;;8.85;4.00;;;;;;;14.10;100.00;100634.25;5056618;28;20052;-61
2022/04/15 00:11:21;;;;;;;7.20;4.35;;;;;;;14.09;100.00;100624.47;5054596;28;20029;-61
2022/04/15 00:13:47;;;;;;;8.63;4.78;;;;;;;14.12;100.00;100627.91;5069527;28;20043;-61
2022/04/15 00:16:13;;;;;;;7.65;4.35;;;;;;;14.06;100.00;100620.13;5074791;28;20070;-61
2022/04/15 00:18:39;;;;;;;7.88;3.97;;;;;;;14.15;100.00;100634.97;5063352;28;20094;-61
2022/04/15 00:21:04;;;;;;;9.02;4.53;;;;;;;14.20;100.00;100627.63;5065008;28;20048;-61
2022/04/15 00:23:30;;;;;;;8.48;4.10;;;;;;;14.23;100.00;100630.19;5082032;28;20027;-61
2022/04/15 00:25:56;;;;;;;11.98;4.68;;;;;;;14.25;100.00;100617.63;5094001;28;20024;-61
2022/04/15 00:28:22;;;;;;;8.50;4.00;;;;;;;14.22;100.00;100626.63;5094329;28;20023;-61
2022/04/15 00:30:47;;;;;;;9.27;5.05;;;;;;;14.20;100.00;100627.63;5094121;28;20047;-61
2022/04/15 00:33:13;;;;;;;9.40;4.13;;;;;;;14.22;100.00;100629.31;5094357;28;20475;-61
2022/04/15 00:35:38;;;;;;;8.32;4.45;;;;;;;14.17;99.91;100623.25;5093833;28;20027;-62
2022/04/15 00:38:04;;;;;;;10.27;4.80;;;;;;;14.12;99.96;100635.94;5094274;28;20028;-61
2022/04/15 00:40:30;;;;;;;7.60;4.18;;;;;;;14.11;100.00;100631.53;5092685;28;20503;-61
2022/04/15 00:42:55;;;;;;;10.05;4.85;;;;;;;14.03;99.91;100636.28;5105679;28;20455;-61
2022/04/15 00:45:21;;;;;;;9.00;5.03;;;;;;;13.99;100.00;100631.97;5093911;28;20386;-61
2022/04/15 00:47:52;;;;;;;10.80;5.30;;;;;;;13.96;99.98;100629.41;5088760;28;20024;-61
2022/04/15 00:50:19;;;;;;;12.50;5.63;;;;;;;13.94;100.00;100635.72;5085062;28;20161;-62
2022/04/15 00:52:47;;;;;;;8.88;5.35;;;;;;;13.86;100.00;100635.13;5093310;28;20192;-62
2022/04/15 00:55:14;;;;;;;10.48;5.10;;;;;;;13.82;100.00;100641.53;5093873;28;20051;-61
2022/04/15 00:57:42;;;;;;;8.80;4.97;;;;;;;13.80;100.00;100628.22;5093954;28;20076;-61
2022/04/15 01:00:09;;;;;;;19.52;8.15;;;;;;;13.84;100.00;100635.19;5094046;28;20023;-62
2022/04/15 01:02:34;;;;;;;28.63;11.48;;;;;;;13.85;100.00;100630.72;5094243;28;20076;-61
2022/04/15 01:05:02;;;;;;;58.30;18.08;;;;;;;13.79;100.00;100636.31;5093467;28;20450;-61
2022/04/15 01:07:32;;;;;;;64.70;20.63;;;;;;;13.74;100.00;100638.25;5092916;28;20063;-61
2022/04/15 01:09:59;;;;;;;55.83;20.63;;;;;;;13.65;100.00;100638.56;5079979;28;20116;-61
2022/04/15 01:12:29;;;;;;;33.33;12.90;;;;;;;13.55;100.00;100645.16;5077801;28;20031;-61
2022/04/15 01:14:59;;;;;;;19.63;8.20;;;;;;;13.54;100.00;100640.75;5093525;28;20074;-61
2022/04/15 01:17:24;;;;;;;16.90;8.00;;;;;;;13.49;100.00;100645.38;5093422;28;20161;-61
2022/04/15 01:19:50;;;;;;;17.30;7.50;;;;;;;13.43;100.00;100651.81;5080182;28;20028;-61
2022/04/15 01:22:17;;;;;;;11.18;5.55;;;;;;;13.16;100.00;100612.69;5073292;28;20029;-61
2022/04/15 01:24:43;;;;;;;11.77;6.20;;;;;;;13.42;100.00;100651.84;5072994;28;20399;-61
2022/04/15 01:27:10;;;;;;;10.40;6.13;;;;;;;13.37;100.00;100653.81;5073340;28;20031;-61
2022/04/15 01:29:37;;;;;;;11.05;5.22;;;;;;;13.35;100.00;100661.00;5072968;28;20126;-61
2022/04/15 01:32:07;;;;;;;12.50;6.07;;;;;;;13.35;100.00;100661.00;5072921;28;20455;-61
2022/04/15 01:34:34;;;;;;;8.23;5.03;;;;;;;13.35;100.00;100661.00;5072757;28;20651;-61
2022/04/15 01:37:00;;;;;;;7.55;5.13;;;;;;;13.27;100.00;100673.75;5073104;28;20020;-61
2022/04/15 01:39:31;;;;;;;12.00;5.03;;;;;;;13.20;100.00;100665.94;5072841;28;20496;-61
2022/04/15 01:41:57;;;;;;;8.05;4.60;;;;;;;13.17;100.00;100662.50;5072487;28;20086;-61
2022/04/15 01:44:23;;;;;;;10.25;5.38;;;;;;;13.27;100.00;100674.63;5091744;28;20020;-61
2022/04/15 01:46:48;;;;;;;9.25;5.10;;;;;;;13.24;100.00;100674.72;5091783;28;20038;-61
2022/04/15 01:49:14;;;;;;;8.27;4.88;;;;;;;13.13;100.00;100669.72;5091842;28;20028;-61
2022/04/15 01:51:39;;;;;;;12.27;5.15;;;;;;;13.11;100.00;100678.72;5091703;28;20102;-61
2022/04/15 01:54:05;;;;;;;10.20;5.28;;;;;;;13.07;100.00;100672.59;5091820;28;20024;-61
2022/04/15 01:56:30;;;;;;;10.48;5.60;;;;;;;13.04;100.00;100672.72;5092731;28;20016;-61
2022/04/15 01:58:56;;;;;;;9.65;5.15;;;;;;;12.99;100.00;100674.63;5092727;28;20408;-61
2022/04/15 02:01:22;;;;;;;14.70;6.10;;;;;;;12.95;100.00;100672.97;5092383;28;20747;-61
2022/04/15 02:03:47;;;;;;;10.27;5.80;;;;;;;12.92;100.00;100673.06;5092716;28;20039;-61
2022/04/15 02:06:13;;;;;;;9.15;5.30;;;;;;;12.92;100.00;100674.84;5089522;28;20020;-61
2022/04/15 02:08:38;;;;;;;8.90;5.28;;;;;;;12.88;100.00;100674.06;5080943;28;20024;-61
2022/04/15 02:11:04;;;;;;;12.95;6.40;;;;;;;12.85;100.00;100676.84;5092603;28;20081;-61
2022/04/15 02:13:29;;;;;;;9.73;5.95;;;;;;;12.88;100.00;100682.06;5092454;28;20020;-61
2022/04/15 02:15:54;;;;;;;7.72;4.93;;;;;;;12.81;100.00;100667.19;5092164;28;20028;-61
2022/04/15 02:18:20;;;;;;;8.93;5.50;;;;;;;12.87;100.00;100680.34;5091109;28;20031;-61
2022/04/15 02:20:45;;;;;;;12.23;4.82;;;;;;;12.81;100.00;100680.53;5091799;28;20052;-61
2022/04/15 02:23:11;;;;;;;10.45;5.50;;;;;;;12.82;100.00;100682.28;5092577;28;20119;-61
2022/04/15 02:25:36;;;;;;;11.02;6.00;;;;;;;12.75;100.00;100680.72;5091979;28;20070;-61
2022/04/15 02:28:01;;;;;;;8.35;5.30;;;;;;;12.70;100.00;100681.78;5090508;28;20024;-61
2022/04/15 02:30:27;;;;;;;12.55;5.90;;;;;;;12.73;100.00;100676.34;5089745;28;20027;-61
2022/04/15 02:32:52;;;;;;;10.57;5.80;;;;;;;12.71;100.00;100689.75;5090487;28;20608;-61
2022/04/15 02:35:18;;;;;;;9.88;6.45;;;;;;;12.56;100.00;100668.84;5089775;28;20150;-61
2022/04/15 02:37:43;;;;;;;11.80;5.78;;;;;;;12.58;100.00;100684.81;5090398;28;20016;-61
2022/04/15 02:40:09;;;;;;;11.02;5.47;;;;;;;12.57;100.00;100685.75;5089834;28;20016;-61
2022/04/15 02:42:35;;;;;;;12.70;7.10;;;;;;;12.64;100.00;100682.84;5091633;28;20051;-61
2022/04/15 02:45:03;;;;;;;9.40;5.13;;;;;;;12.54;100.00;100675.16;5091356;28;20077;-61
2022/04/15 02:47:29;;;;;;;11.43;6.10;;;;;;;12.57;100.00;100686.59;5092306;28;20030;-61
2022/04/15 02:49:55;;;;;;;8.25;5.15;;;;;;;12.48;100.00;100673.56;5091862;28;20468;-61
2022/04/15 02:52:21;;;;;;;10.63;6.50;;;;;;;12.48;100.00;100686.91;5088601;28;20020;-61
2022/04/15 02:54:47;;;;;;;11.35;6.00;;;;;;;12.38;100.00;100684.53;5091993;28;20570;-61
2022/04/15 02:57:12;;;;;;;9.48;5.10;;;;;;;12.32;100.00;100688.25;5091947;28;20146;-61
2022/04/15 02:59:38;;;;;;;12.52;6.28;;;;;;;12.34;100.00;100685.56;5091467;28;20467;-61
2022/04/15 03:02:03;;;;;;;14.52;5.43;;;;;;;12.33;100.00;100671.34;5091817;28;20075;-61
2022/04/15 03:04:29;;;;;;;10.07;5.63;;;;;;;12.34;100.00;100683.75;5092032;28;20527;-61
2022/04/15 03:06:54;;;;;;;13.45;5.50;;;;;;;12.25;100.00;100676.03;5090782;28;20028;-61
2022/04/15 03:09:21;;;;;;;12.52;5.60;;;;;;;12.21;100.00;100679.69;5089049;28;20020;-62
2022/04/15 03:11:47;;;;;;;9.77;5.50;;;;;;;12.16;100.00;100673.59;5091986;28;20036;-62
2022/04/15 03:14:12;;;;;;;10.60;5.18;;;;;;;12.16;100.00;100681.59;5091364;28;20145;-62
2022/04/15 03:16:38;;;;;;;11.02;5.88;;;;;;;12.12;100.00;100677.28;5091685;28;20099;-62
2022/04/15 03:19:03;;;;;;;10.68;6.20;;;;;;;12.14;100.00;100691.44;5075427;28;20032;-62
2022/04/15 03:21:29;;;;;;;9.65;5.03;;;;;;;12.19;100.00;100684.19;5071343;28;20048;-61
2022/04/15 03:23:55;;;;;;;10.10;5.63;;;;;;;12.20;100.00;100685.94;5071357;28;20127;-61
2022/04/15 03:26:21;;;;;;;8.73;5.07;;;;;;;12.18;100.00;100677.09;5071508;28;20029;-61
2022/04/15 03:28:47;;;;;;;11.07;6.00;;;;;;;12.09;100.00;100681.84;5070797;28;20190;-61
2022/04/15 03:31:12;;;;;;;10.95;6.03;;;;;;;12.01;100.00;100686.50;5072455;28;20103;-61
2022/04/15 03:33:38;;;;;;;11.75;6.50;;;;;;;12.00;100.00;100688.28;5075503;28;20027;-61
2022/04/15 03:36:04;;;;;;;9.05;5.95;;;;;;;11.95;100.00;100687.53;5077192;28;20028;-61
2022/04/15 03:38:29;;;;;;;12.02;6.43;;;;;;;12.04;100.00;100689.97;5084461;28;20024;-61
2022/04/15 03:40:54;;;;;;;14.07;6.63;;;;;;;12.09;100.00;100688.06;5075094;28;20032;-61
2022/04/15 03:43:20;;;;;;;11.90;6.15;;;;;;;12.14;100.00;100688.78;5087117;28;20395;-61
2022/04/15 03:45:45;;;;;;;12.52;6.85;;;;;;;12.10;100.00;100683.56;5095082;28;20027;-61
2022/04/15 03:48:11;;;;;;;9.68;5.57;;;;;;;12.00;100.00;100693.63;5095222;28;20039;-61
2022/04/15 03:50:36;;;;;;;9.88;5.60;;;;;;;11.96;100.00;100689.28;5095240;28;20028;-61
2022/04/15 03:53:01;;;;;;;11.00;5.70;;;;;;;11.91;100.00;100694.75;5093403;28;20058;-61
2022/04/15 03:55:27;;;;;;;12.20;5.55;;;;;;;11.83;100.00;100696.75;5093241;28;20047;-61
2022/04/15 03:57:52;;;;;;;11.30;5.95;;;;;;;11.85;100.00;100699.38;5092952;28;20066;-61
2022/04/15 04:00:20;;;;;;;12.93;6.20;;;;;;;11.79;100.00;100696.88;5094270;28;20486;-61
2022/04/15 04:02:46;;;;;;;9.55;5.57;;;;;;;11.71;100.00;100694.41;5095085;28;20019;-61
2022/04/15 04:05:15;;;;;;;10.80;5.13;;;;;;;11.69;100.00;100703.38;5094751;28;20054;-61
2022/04/15 04:07:41;;;;;;;9.82;4.95;;;;;;;11.58;100.00;100700.09;5094891;28;20024;-61
2022/04/15 04:10:07;;;;;;;9.65;5.65;;;;;;;11.56;100.00;100701.91;5091676;28;20115;-61
2022/04/15 04:12:33;;;;;;;13.45;7.05;;;;;;;11.50;100.00;100702.03;5094866;28;20455;-61
2022/04/15 04:15:00;;;;;;;9.27;5.32;;;;;;;11.47;100.00;100713.66;5094193;28;20486;-61
2022/04/15 04:17:25;;;;;;;9.90;5.40;;;;;;;11.42;100.00;100709.34;5094771;28;20024;-61
2022/04/15 04:19:50;;;;;;;11.52;5.38;;;;;;;11.42;100.00;100709.34;5094068;28;20066;-61
2022/04/15 04:22:16;;;;;;;10.82;5.30;;;;;;;11.51;100.00;100710.03;5094749;28;20031;-61
2022/04/15 04:24:41;;;;;;;13.45;5.55;;;;;;;11.44;100.00;100716.41;5094448;28;20111;-61
2022/04/15 04:27:07;;;;;;;7.72;5.15;;;;;;;11.39;100.00;100715.66;5094428;28;20057;-61
2022/04/15 04:29:32;;;;;;;9.25;5.25;;;;;;;11.41;100.00;100712.94;5094528;28;20020;-61
2022/04/15 04:31:57;;;;;;;10.90;5.10;;;;;;;11.39;100.00;100715.66;5094672;28;20045;-61
2022/04/15 04:34:23;;;;;;;9.68;4.93;;;;;;;11.37;100.00;100717.47;5094323;28;20095;-62
2022/04/15 04:36:48;;;;;;;9.70;5.60;;;;;;;11.29;100.00;100718.56;5094309;28;20051;-62
2022/04/15 04:39:13;;;;;;;10.35;5.70;;;;;;;11.32;100.00;100722.03;5094359;28;20360;-61
2022/04/15 04:41:40;;;;;;;9.23;5.05;;;;;;;11.32;100.00;100730.00;5094067;28;20032;-61
2022/04/15 04:44:06;;;;;;;7.90;4.72;;;;;;;11.16;100.00;100710.00;5080648;28;20012;-61
2022/04/15 04:46:33;;;;;;;11.23;5.82;;;;;;;11.21;100.00;100728.53;5060019;28;20427;-61
2022/04/15 04:48:58;;;;;;;10.82;5.47;;;;;;;11.17;100.00;100734.84;5053726;28;20029;-61
2022/04/15 04:51:24;;;;;;;10.25;5.65;;;;;;;11.17;100.00;100730.38;5054074;28;20111;-62
2022/04/15 04:53:49;;;;;;;10.00;6.00;;;;;;;11.24;100.00;100736.44;5053494;28;20029;-61
2022/04/15 04:56:15;;;;;;;13.55;6.13;;;;;;;11.29;100.00;100745.19;5053690;28;20025;-61
2022/04/15 04:58:41;;;;;;;12.43;5.60;;;;;;;11.32;100.00;100740.66;5053749;28;20049;-61
2022/04/15 05:01:07;;;;;;;12.50;6.20;;;;;;;11.36;100.00;100738.81;5053711;28;20124;-61
2022/04/15 05:03:32;;;;;;;16.98;10.05;;;;;;;11.37;100.00;100743.22;5058370;28;20019;-61
2022/04/15 05:05:58;;;;;;;13.35;7.43;;;;;;;11.36;100.00;100742.34;5073731;28;20029;-61
2022/04/15 05:08:23;;;;;;;12.50;5.95;;;;;;;11.45;100.00;100751.91;5073678;28;20020;-62
2022/04/15 05:10:49;;;;;;;10.50;6.35;;;;;;;11.55;100.00;100758.75;5073335;28;20017;-61
2022/04/15 05:13:14;;;;;;;11.77;6.70;;;;;;;11.58;100.00;100756.88;5073260;28;20032;-61
2022/04/15 05:15:39;;;;;;;14.60;6.22;;;;;;;11.59;100.00;100755.09;5073643;28;20491;-62
2022/04/15 05:18:05;;;;;;;7.38;5.03;;;;;;;11.68;100.00;100760.22;5073271;28;20110;-61
2022/04/15 05:20:32;;;;;;;7.18;4.60;;;;;;;11.68;100.00;100762.88;5079565;28;20047;-61
2022/04/15 05:22:58;;;;;;;7.28;4.40;;;;;;;11.68;100.00;100760.22;5093190;28;20020;-61
2022/04/15 05:25:23;;;;;;;8.52;4.40;;;;;;;11.72;100.00;100767.25;5093218;28;20028;-61
2022/04/15 05:27:49;;;;;;;6.53;3.88;;;;;;;11.85;100.00;100771.34;5078952;28;20021;-61
2022/04/15 05:30:15;;;;;;;15.60;5.88;;;;;;;12.02;100.00;100774.47;5071180;28;20029;-61
2022/04/15 05:32:40;;;;;;;8.13;4.68;;;;;;;12.20;100.00;100771.28;5070947;28;20027;-61
2022/04/15 05:35:07;;;;;;;11.70;5.57;;;;;;;12.40;100.00;100774.28;5071084;28;20024;-61
2022/04/15 05:37:32;;;;;;;10.52;5.20;;;;;;;12.57;100.00;100772.00;5071181;28;20419;-61
2022/04/15 05:39:58;;;;;;;10.57;5.63;;;;;;;12.72;100.00;100766.22;5071521;28;20071;-61
2022/04/15 05:42:27;;;;;;;16.60;9.85;;;;;;;12.87;100.00;100779.13;5076852;28;20019;-61
2022/04/15 05:44:53;;;;;;;11.23;6.28;;;;;;;12.98;100.00;100779.66;5092426;28;20387;-61
2022/04/15 05:47:18;;;;;;;11.13;5.57;;;;;;;13.07;99.97;100776.78;5091976;28;20031;-62
2022/04/15 05:49:44;;;;;;;10.18;4.78;;;;;;;13.30;99.77;100775.16;5092941;28;20074;-61
2022/04/15 05:52:09;;;;;;;8.70;5.50;;;;;;;13.56;99.04;100780.56;5092939;28;20032;-61
2022/04/15 05:54:35;;;;;;;9.88;5.45;;;;;;;13.75;98.10;100792.41;5092081;28;20391;-61
2022/04/15 05:57:00;;;;;;;11.18;5.88;;;;;;;13.80;97.07;100782.44;5093273;28;20028;-61
2022/04/15 05:59:25;;;;;;;9.23;5.03;;;;;;;14.00;96.56;100785.31;5092478;28;20020;-61
2022/04/15 06:01:53;;;;;;;9.15;5.82;;;;;;;14.24;95.74;100789.78;5091265;28;20023;-61
2022/04/15 06:04:19;;;;;;;12.85;6.90;;;;;;;14.43;93.74;100789.13;5090662;28;20479;-61
2022/04/15 06:06:46;;;;;;;12.18;6.20;;;;;;;14.68;92.92;100790.91;5089129;28;20060;-61
2022/04/15 06:09:12;;;;;;;10.93;5.90;;;;;;;14.97;91.48;100794.25;5092081;28;20183;-61
2022/04/15 06:11:39;;;;;;;12.27;6.53;;;;;;;15.33;88.66;100795.50;5092616;28;20157;-61
2022/04/15 06:14:06;;;;;;;11.23;6.15;;;;;;;15.75;86.31;100790.22;5092267;28;20028;-62
2022/04/15 06:16:32;;;;;;;11.50;6.35;;;;;;;15.82;84.89;100800.66;5092454;28;20022;-62
2022/04/15 06:18:58;;;;;;;10.50;5.95;;;;;;;15.65;84.64;100800.47;5091967;28;20028;-62
2022/04/15 06:21:24;;;;;;;13.88;6.95;;;;;;;15.67;85.16;100793.25;5092504;28;20080;-62
2022/04/15 06:23:50;;;;;;;11.30;6.10;;;;;;;15.77;86.55;100801.78;5076990;28;20099;-61
2022/04/15 06:26:15;;;;;;;11.25;5.60;;;;;;;16.24;85.85;100792.59;5071815;28;20118;-61
2022/04/15 06:28:41;;;;;;;13.00;5.57;;;;;;;16.61;83.71;100800.81;5069870;28;20023;-61
2022/04/15 06:31:06;;;;;;;10.90;6.20;;;;;;;16.70;82.91;100789.66;5070227;28;20040;-62
2022/04/15 06:33:31;;;;;;;12.55;6.88;;;;;;;16.77;82.88;100791.09;5070151;28;20384;-62
2022/04/15 06:35:59;;;;;;;12.63;7.70;;;;;;;16.92;83.09;100794.91;5070193;28;20024;-62
2022/04/15 06:38:25;;;;;;;16.30;7.75;;;;;;;17.35;81.59;100786.56;5070800;28;20021;-61
2022/04/15 06:40:50;;;;;;;17.25;8.63;;;;;;;17.65;79.26;100795.88;5059549;28;20044;-61
2022/04/15 06:43:16;;;;;;;15.00;8.60;;;;;;;17.74;78.25;100794.56;5061425;28;20372;-62
2022/04/15 06:45:41;;;;;;;16.80;9.00;;;;;;;17.73;76.54;100796.38;5071388;28;20078;-61
2022/04/15 06:48:07;;;;;;;16.88;9.68;;;;;;;17.81;76.89;100804.94;5071477;28;20059;-62
2022/04/15 06:50:32;;;;;;;15.40;9.38;;;;;;;17.81;76.49;100799.56;5071461;28;20104;-61
2022/04/15 06:52:58;;;;;;;15.30;9.02;;;;;;;17.88;75.03;100795.63;5071213;28;20020;-61
2022/04/15 06:55:23;;;;;;;13.20;8.98;;;;;;;18.15;75.11;100799.59;5053818;28;20049;-62
2022/04/15 06:57:49;;;;;;;15.60;9.80;;;;;;;18.55;73.60;100805.66;5058815;28;20534;-61
2022/04/15 07:00:14;;;;;;;17.38;10.27;;;;;;;18.87;71.89;100804.81;5051183;28;20021;-62
2022/04/15 07:02:41;;;;;;;17.23;9.30;;;;;;;19.20;71.24;100809.25;5051694;28;20031;-61
2022/04/15 07:05:09;;;;;;;13.63;9.07;;;;;;;19.34;70.15;100816.63;5051351;28;20025;-62
2022/04/15 07:07:38;;;;;;;16.55;9.70;;;;;;;19.37;67.97;100805.63;5050931;28;20033;-62
2022/04/15 07:10:05;;;;;;;14.43;9.65;;;;;;;19.58;67.10;100821.50;5051584;28;20063;-62
2022/04/15 07:12:31;;;;;;;14.00;9.93;;;;;;;19.59;66.11;100822.34;5060783;28;20020;-62
2022/04/15 07:14:57;;;;;;;14.77;9.90;;;;;;;19.57;65.64;100824.28;5069689;28;20028;-62
2022/04/15 07:17:23;;;;;;;13.80;10.48;;;;;;;19.78;66.52;100823.06;5081112;28;20044;-62
2022/04/15 07:19:49;;;;;;;19.17;10.82;;;;;;;19.75;65.65;100825.06;5073734;28;20489;-62
2022/04/15 07:22:18;;;;;;;16.65;10.60;;;;;;;19.90;64.42;100822.31;5071600;28;20067;-62
2022/04/15 07:24:45;;;;;;;15.50;10.73;;;;;;;20.22;64.11;100826.75;5071124;28;20024;-62
2022/04/15 07:27:10;;;;;;;19.95;10.88;;;;;;;20.27;62.26;100832.75;5071255;28;20039;-62
2022/04/15 07:29:36;;;;;;;16.10;10.23;;;;;;;20.52;63.02;100830.34;5070996;28;20021;-62
2022/04/15 07:32:01;;;;;;;14.88;10.25;;;;;;;20.73;61.73;100831.72;5071215;28;20361;-62
2022/04/15 07:34:27;;;;;;;18.10;11.00;;;;;;;20.83;61.62;100823.91;5071004;28;20020;-62
2022/04/15 07:37:03;;;;;;;14.98;10.10;;;;;;;20.79;60.28;100825.06;5086800;28;20492;-62
2022/04/15 07:39:29;;;;;;;17.38;10.25;;;;;;;20.77;58.23;100832.41;5091217;28;20024;-62
2022/04/15 07:41:55;;;;;;;17.92;11.20;;;;;;;20.70;60.28;100825.63;5090414;28;20028;-62
2022/04/15 07:44:20;;;;;;;18.80;10.85;;;;;;;20.96;61.66;100824.91;5091007;28;20020;-63
2022/04/15 07:46:47;;;;;;;15.00;9.75;;;;;;;20.98;59.41;100828.41;5081327;28;20032;-61
2022/04/15 07:49:13;;;;;;;17.30;10.60;;;;;;;21.06;60.39;100827.91;5088646;28;20111;-62
2022/04/15 07:51:39;;;;;;;16.13;8.95;;;;;;;21.07;59.06;100826.97;5090963;28;20146;-62
2022/04/15 07:54:06;;;;;;;14.65;9.63;;;;;;;20.96;59.90;100833.00;5089560;28;20078;-62
2022/04/15 07:56:33;;;;;;;17.50;9.48;;;;;;;21.08;57.44;100835.00;5089815;28;20028;-62
2022/04/15 07:58:59;;;;;;;16.52;10.13;;;;;;;21.09;60.32;100831.31;5089577;28;20028;-62
2022/04/15 08:01:27;;;;;;;14.75;9.88;;;;;;;21.05;60.36;100837.91;5084349;28;20019;-63
2022/04/15 08:03:56;;;;;;;17.80;10.75;;;;;;;21.03;58.10;100828.13;5080488;28;20090;-62
2022/04/15 08:06:24;;;;;;;17.42;10.70;;;;;;;21.07;60.17;100829.69;5089748;28;20047;-63
2022/04/15 08:08:50;;;;;;;15.73;10.32;;;;;;;21.38;59.25;100835.78;5090935;28;20078;-62
2022/04/15 08:11:16;;;;;;;16.38;11.18;;;;;;;21.31;57.80;100841.66;5091002;28;20460;-62
2022/04/15 08:13:42;;;;;;;18.73;11.18;;;;;;;21.52;58.27;100842.97;5090430;28;20012;-62
2022/04/15 08:16:08;;;;;;;16.35;11.80;;;;;;;21.48;57.84;100834.19;5076363;28;20567;-62
2022/04/15 08:18:34;;;;;;;18.40;11.40;;;;;;;21.66;57.88;100842.97;5074001;28;20028;-62
2022/04/15 08:21:00;;;;;;;17.88;11.43;;;;;;;21.61;56.16;100847.81;5074029;28;20529;-62
2022/04/15 08:23:27;;;;;;;18.55;11.95;;;;;;;21.94;55.93;100835.66;5074494;28;20036;-62
2022/04/15 08:25:52;;;;;;;16.27;10.57;;;;;;;22.61;56.44;100845.56;5086615;28;20479;-62
2022/04/15 08:28:17;;;;;;;19.65;12.05;;;;;;;22.86;53.76;100848.31;5093217;28;20022;-63
2022/04/15 08:30:43;;;;;;;24.10;12.27;;;;;;;23.20;53.20;100842.25;5091733;28;20114;-63
2022/04/15 08:33:09;;;;;;;17.67;11.63;;;;;;;23.49;51.20;100839.31;5094322;28;20020;-63
2022/04/15 08:35:35;;;;;;;21.08;12.02;;;;;;;23.89;50.24;100847.13;5084183;28;20036;-63
2022/04/15 08:38:00;;;;;;;19.95;12.00;;;;;;;24.05;51.07;100847.75;5076275;28;20099;-63
2022/04/15 08:40:27;;;;;;;16.15;10.68;;;;;;;24.61;49.07;100846.16;5073803;28;20365;-63
2022/04/15 08:42:53;;;;;;;17.70;11.60;;;;;;;24.59;48.33;100856.28;5081545;28;20028;-63
2022/04/15 08:45:24;;;;;;;19.73;11.35;;;;;;;24.38;47.65;100866.09;5093185;28;20158;-63
2022/04/15 08:47:49;;;;;;;17.52;11.10;;;;;;;24.36;48.75;100868.06;5093940;28;20554;-63
2022/04/15 08:50:15;;;;;;;18.27;11.48;;;;;;;24.92;49.43;100863.72;5084076;28;20126;-63
2022/04/15 08:52:41;;;;;;;16.50;11.80;;;;;;;25.21;47.39;100860.44;5073609;28;20038;-63
2022/04/15 08:55:07;;;;;;;19.77;11.65;;;;;;;25.20;46.45;100861.44;5081735;28;20102;-63
2022/04/15 08:57:33;;;;;;;18.27;11.93;;;;;;;25.29;48.36;100866.13;5093756;28;20031;-63
2022/04/15 08:59:59;;;;;;;16.55;11.40;;;;;;;25.18;45.07;100865.25;5087715;28;20392;-63
2022/04/15 09:02:35;;;;;;;16.88;11.88;;;;;;;25.13;45.41;100868.34;5073601;28;20454;-63
2022/04/15 09:05:01;;;;;;;18.60;11.20;;;;;;;25.17;44.87;100866.25;5073378;28;20033;-63
2022/04/15 09:07:33;;;;;;;20.33;12.82;;;;;;;25.24;46.74;100865.63;5073613;28;20035;-63
2022/04/15 09:10:01;;;;;;;18.38;11.23;;;;;;;25.52;47.30;100865.19;5073424;28;20452;-63
2022/04/15 09:12:29;;;;;;;15.65;11.40;;;;;;;25.75;44.33;100869.63;5080403;28;20442;-63
2022/04/15 09:15:07;;;;;;;16.42;10.52;;;;;;;25.51;43.50;100871.63;5088067;28;20067;-64
2022/04/15 09:17:40;;;;;;;17.92;11.32;;;;;;;25.47;46.25;100869.28;5073413;28;20031;-64
2022/04/15 09:20:09;;;;;;;17.17;10.73;;;;;;;25.82;47.25;100870.88;5072602;28;20049;-64
2022/04/15 09:22:35;;;;;;;18.85;11.68;;;;;;;26.14;45.82;100870.09;5074060;28;20039;-64
2022/04/15 09:25:01;;;;;;;19.10;11.02;;;;;;;26.23;46.82;100869.34;5081334;28;20077;-64
2022/04/15 09:27:28;;;;;;;15.82;10.13;;;;;;;26.49;44.13;100881.66;5091325;28;20052;-64
2022/04/15 09:29:57;;;;;;;18.00;10.52;;;;;;;26.43;43.28;100879.41;5088785;28;20041;-64
2022/04/15 09:32:24;;;;;;;18.63;10.15;;;;;;;26.42;45.27;100886.75;5091920;28;20098;-63
2022/04/15 09:35:08;;;;;;;15.07;10.48;;;;;;;26.50;43.27;100877.91;5084494;28;20038;-63
2022/04/15 09:37:39;;;;;;;17.25;9.50;;;;;;;26.41;45.15;100882.28;5071682;28;20032;-63
2022/04/15 09:40:06;;;;;;;13.20;9.43;;;;;;;26.82;44.53;100878.81;5091861;28;20028;-63
2022/04/15 09:42:35;;;;;;;16.30;9.27;;;;;;;27.16;45.15;100877.59;5075053;28;20073;-62
2022/04/15 09:45:19;;;;;;;15.95;9.70;;;;;;;26.54;40.39;100879.41;5092959;28;20020;-63
2022/04/15 09:48:01;;;;;;;13.68;8.73;;;;;;;26.31;42.75;100872.28;5074850;28;20471;-63
2022/04/15 09:50:34;;;;;;;15.52;9.43;;;;;;;25.76;42.93;100876.84;5092132;28;20685;-63
2022/04/15 09:53:17;;;;;;;14.75;8.98;;;;;;;25.87;44.30;100868.63;5093066;28;20503;-63
2022/04/15 09:55:46;;;;;;;15.18;9.48;;;;;;;26.15;42.61;100863.63;5087882;28;20020;-63
2022/04/15 09:58:19;;;;;;;17.52;8.90;;;;;;;26.36;41.95;100867.31;5092554;28;20112;-63
2022/04/15 10:00:48;;;;;;;13.07;9.40;;;;;;;26.76;42.11;100857.47;5092475;28;20016;-63
2022/04/15 10:03:25;;;;;;;12.82;9.30;;;;;;;26.86;41.15;100859.28;5092835;28;20035;-63
2022/04/15 10:05:54;;;;;;;13.13;9.45;;;;;;;26.99;41.99;100859.94;5087581;28;20055;-63
2022/04/15 10:08:21;;;;;;;19.13;10.90;;;;;;;26.71;41.61;100859.72;5072493;28;20056;-63
2022/04/15 10:10:47;;;;;;;15.82;9.43;;;;;;;26.62;42.67;100860.50;5072044;28;20120;-62
2022/04/15 10:13:13;;;;;;;17.48;10.68;;;;;;;26.65;40.64;100871.16;5083273;28;20028;-62
2022/04/15 10:15:39;;;;;;;15.02;10.00;;;;;;;26.30;40.35;100860.50;5092484;28;20081;-63
2022/04/15 10:18:05;;;;;;;14.25;9.18;;;;;;;26.71;43.25;100867.91;5092289;28;20081;-63
2022/04/15 10:20:31;;;;;;;16.92;10.65;;;;;;;26.66;41.40;100872.91;5091960;28;20556;-62
2022/04/15 10:23:06;;;;;;;19.00;10.55;;;;;;;26.54;40.56;100874.78;5092241;28;20475;-63
2022/04/15 10:25:33;;;;;;;17.88;9.73;;;;;;;26.39;41.45;100869.78;5091076;28;20020;-63
2022/04/15 10:28:15;;;;;;;16.17;8.88;;;;;;;26.79;40.64;100862.66;5082235;28;20024;-62
2022/04/15 10:31:17;;;;;;;14.52;9.48;;;;;;;27.34;41.19;100865.09;5071867;28;20033;-62
2022/04/15 10:33:49;;;;;;;14.63;9.32;;;;;;;27.98;39.87;100866.53;5070155;28;20094;-62
2022/04/15 10:36:21;;;;;;;13.67;8.63;;;;;;;28.38;38.28;100870.03;5071986;28;20031;-62
2022/04/15 10:39:07;;;;;;;13.30;8.05;;;;;;;28.55;39.03;100859.44;5071709;28;20046;-62
2022/04/15 10:41:41;;;;;;;16.75;9.57;;;;;;;28.59;35.21;100859.00;5071885;28;20027;-62
2022/04/15 10:44:14;;;;;;;12.35;7.38;;;;;;;28.99;38.13;100856.09;5089915;28;20073;-62
2022/04/15 10:46:40;;;;;;;18.73;9.10;;;;;;;29.53;36.36;100854.38;5080889;28;20027;-62
2022/04/15 10:49:26;;;;;;;12.45;7.57;;;;;;;30.07;34.92;100853.53;5071641;28;20109;-62
2022/04/15 10:52:16;;;;;;;17.20;8.27;;;;;;;30.11;34.29;100854.97;5071556;28;20032;-62
2022/04/15 10:54:45;;;;;;;13.30;8.40;;;;;;;30.03;34.79;100852.13;5071618;28;20021;-62
2022/04/15 10:57:17;;;;;;;13.73;7.32;;;;;;;29.80;35.01;100850.81;5071482;28;20027;-63
2022/04/15 11:02:41;;;;;;;15.57;9.30;;;;;;;29.49;35.09;100857.53;5071636;28;20031;-63
2022/04/15 11:05:11;;;;;;;15.05;8.68;;;;;;;30.01;34.56;100854.16;5071497;28;20545;-63
2022/04/15 11:07:56;;;;;;;14.32;8.98;;;;;;;29.94;35.08;100863.16;5071553;28;20025;-63
2022/04/15 11:11:03;;;;;;;18.85;9.38;;;;;;;30.14;36.33;100854.66;5071105;28;20028;-63
2022/04/15 11:13:52;;;;;;;13.43;8.55;;;;;;;30.13;32.38;100847.41;5084717;28;20024;-63
2022/04/15 11:16:18;;;;;;;14.50;8.55;;;;;;;29.86;34.61;100849.34;5091463;28;20442;-63